• Join FlightAware (Why Join?)
  • Login
  • US Flag 
05:36AM EDT


 

Airport Tracker/Info


-or-


 

Live Flight TrackerFlight Track Log ✈ C-GEMB ✈ 28-Jul-2013 ✈ KANJ - KOSH

Flight Track Log - Related Links

Times and Time Zones

All times are in EDT time to prevent confusion due to time zone crossing. See the C-GEMB flight status page for this flight to view local times or setup timezone preferences in your user account.

Time Position Orientation Groundspeed Altitude Reporting Facility
EDT Latitude Longitude Course Direction KTS MPH feet Rate Location/Type
02:58PM 46.4167 -84.4000 254° West 120 138 4,600  Level Toronto Center
02:59PM 46.4000 -84.4500 244° Southwest 130 150 6,000 1,440 Climbing Toronto Center
03:00PM 46.3833 -84.4833 234° Southwest 140 161 7,500 1,620 Climbing Toronto Center
03:01PM 46.3667 -84.5667 254° West 140 161 9,300 1,620 Climbing Toronto Center
03:02PM 46.3500 -84.6000 234° Southwest 150 173 10,800 1,500 Climbing Toronto Center
03:03PM 46.3662 -85.0858 254° West  Level FlightAware Approximate
03:03PM 46.3333 -84.6833 254° West 150 173 12,400  Level Toronto Center
03:04PM 46.3167 -84.7333 244° Southwest 160 184 14,000 1,620 Climbing Toronto Center
03:05PM 46.3000 -84.8000 250° West 160 184 15,700 1,560 Climbing Toronto Center
03:06PM 46.2833 -84.8500 244° Southwest 170 196 17,100 1,440 Climbing Toronto Center
03:07PM 46.2667 -84.9167 250° West 170 196 18,600 1,560 Climbing Toronto Center
03:08PM 46.2333 -84.9833 234° Southwest 180 207 20,300 1,440 Climbing Toronto Center
03:09PM 46.2000 -85.0500 234° Southwest 180 207 21,600 1,320 Climbing Toronto Center
03:10PM 46.1833 -85.1167 250° West 190 219 23,000 1,200 Climbing Toronto Center
03:10PM 46.1817 -85.1619 267° West 197 227 23,800 1,020 Climbing Minneapolis Center
03:11PM 46.1378 -85.2197 222° Southwest 211 243 24,900 540 Climbing Minneapolis Center
03:12PM 46.0758 -85.2981 221° Southwest 239 275 25,000  Climbing Minneapolis Center
03:13PM 46.0156 -85.3731 221° Southwest 274 315 25,000  Level Minneapolis Center
03:14PM 45.9542 -85.4522 222° Southwest 292 336 25,000  Level Minneapolis Center
03:15PM 45.8911 -85.5314 221° Southwest 300 345 25,000  Level Minneapolis Center
03:17PM 45.8286 -85.6108 222° Southwest 301 346 25,000  Level Minneapolis Center
03:18PM 45.7539 -85.7056 222° Southwest 300 345 25,000  Level Minneapolis Center
03:19PM 45.6911 -85.7853 222° Southwest 302 348 25,000  Level Minneapolis Center
03:20PM 45.6283 -85.8650 222° Southwest 303 349 25,000  Level Minneapolis Center
03:21PM 45.5542 -85.9603 222° Southwest 301 346 25,000  Level Minneapolis Center
03:22PM 45.4928 -86.0408 223° Southwest 303 349 25,000  Level Minneapolis Center
03:23PM 45.4303 -86.1222 222° Southwest 305 351 25,000  Level Minneapolis Center
03:24PM 45.3558 -86.2206 223° Southwest 306 352 25,000 -540 Level Minneapolis Center
03:25PM 45.2914 -86.3036 222° Southwest 314 361 23,900 -1,140 Descending Minneapolis Center
03:26PM 45.2225 -86.3919 222° Southwest 331 381 22,700 -1,260 Descending Minneapolis Center
03:27PM 45.1550 -86.4733 220° Southwest 335 386 21,300 -1,380 Descending Minneapolis Center
03:28PM 45.0864 -86.5572 221° Southwest 331 381 19,900 -1,320 Descending Minneapolis Center
03:29PM 45.0103 -86.6489 220° Southwest 307 353 18,600 -1,260 Descending Minneapolis Center
03:30PM 44.9514 -86.7197 220° Southwest 274 315 17,400 -1,020 Descending Minneapolis Center
03:31PM 44.8978 -86.7836 220° Southwest 257 296 16,500 -1,020 Descending Minneapolis Center
03:32PM 44.8400 -86.8522 220° Southwest 270 311 15,400 -1,080 Descending Minneapolis Center
03:33PM 44.7806 -86.9219 220° Southwest 279 321 14,100 -1,560 Descending Minneapolis Center
03:35PM 44.7014 -87.0164 220° Southwest 269 310 11,900 -1,800 Descending Minneapolis Center
03:36PM 44.6467 -87.0825 221° Southwest 264 304 10,400 -1,500 Descending Minneapolis Center
03:37PM 44.5906 -87.1472 219° Southwest 262 302 8,900 -1,380 Descending Minneapolis Center
03:38PM 44.5358 -87.2106 220° Southwest 258 297 7,600 -1,260 Descending Minneapolis Center
03:39PM 44.4856 -87.2703 220° Southwest 244 281 6,400 -1,140 Descending Minneapolis Center
03:40PM 44.4314 -87.3364 221° Southwest 233 268 5,100 -660 Descending Minneapolis Center
03:41PM 44.3694 -87.4056 219° Southwest 215 247 5,000 -60 Descending Minneapolis Center
03:42PM 44.3236 -87.4583 219° Southwest 214 246 5,000  Level Minneapolis Center
03:43PM 44.2775 -87.5114 219° Southwest 214 246 5,000  Level Minneapolis Center
03:44PM 44.2314 -87.5642 219° Southwest 213 245 5,000  Level Minneapolis Center
03:45PM 44.1933 -87.6075 219° Southwest 213 245 5,000  Level Minneapolis Center
03:46PM 44.1394 -87.6689 219° Southwest 214 246 5,000  Level Minneapolis Center
03:47PM 44.1142 -87.7528 247° West 211 243 5,000  Level Chicago Center
03:48PM 44.0967 -87.8292 252° West 207 238 5,000  Level Chicago Center
03:49PM 44.0789 -87.9047 252° West 206 237 5,000  Level Chicago Center
03:50PM 44.0619 -87.9794 253° West 203 234 5,000  Level Chicago Center
03:51PM 44.0453 -88.0525 252° West 200 230 5,000  Level Chicago Center
03:52PM 44.0247 -88.1367 251° West 198 228 5,000  Level Chicago Center
03:53PM 44.0081 -88.2097 252° West 199 229 5,000 -660 Level Chicago Center
03:54PM 43.9903 -88.2869 252° West 204 235 3,700 -1,020 Descending Chicago Center
03:55PM 43.9906 -88.3656 270° West 203 234 3,000 -540 Descending Chicago Center
03:56PM 43.9908 -88.4325 270° West 189 217 2,600 -660 Descending Chicago Center
03:57PM 43.9917 -88.4972 271° West 164 189 1,700 -720 Descending Chicago Center
03:59PM 43.9914 -88.5431 270° West 151 174 1,200 -480 Descending Chicago Center